sensor_id;sensor_type;location;lat;lon;timestamp;pressure;altitude;pressure_sealevel;temperature;humidity
52935;BME280;38802;50.198;19.796;2023-04-24T00:01:08;95404.39;;;12.32;44.23
52935;BME280;38802;50.198;19.796;2023-04-24T00:03:36;95404.80;;;12.25;44.46
52935;BME280;38802;50.198;19.796;2023-04-24T00:06:05;95406.59;;;12.24;44.69
52935;BME280;38802;50.198;19.796;2023-04-24T00:08:35;95404.90;;;12.15;44.56
52935;BME280;38802;50.198;19.796;2023-04-24T00:11:04;95403.30;;;12.06;44.67
52935;BME280;38802;50.198;19.796;2023-04-24T00:13:32;95400.96;;;11.99;44.93
52935;BME280;38802;50.198;19.796;2023-04-24T00:16:00;95402.21;;;11.97;44.96
52935;BME280;38802;50.198;19.796;2023-04-24T00:18:28;95401.30;;;11.98;45.34
52935;BME280;38802;50.198;19.796;2023-04-24T00:20:56;95401.12;;;12.00;45.27
52935;BME280;38802;50.198;19.796;2023-04-24T00:23:24;95396.46;;;12.01;45.35
52935;BME280;38802;50.198;19.796;2023-04-24T00:25:52;95395.46;;;12.04;45.41
52935;BME280;38802;50.198;19.796;2023-04-24T00:28:20;95397.25;;;12.10;45.38
52935;BME280;38802;50.198;19.796;2023-04-24T00:30:48;95390.89;;;12.18;45.55
52935;BME280;38802;50.198;19.796;2023-04-24T00:33:16;95387.55;;;12.23;45.47
52935;BME280;38802;50.198;19.796;2023-04-24T00:35:44;95387.79;;;12.26;45.30
52935;BME280;38802;50.198;19.796;2023-04-24T00:38:12;95386.04;;;12.21;45.26
52935;BME280;38802;50.198;19.796;2023-04-24T00:40:40;95390.00;;;12.13;45.26
52935;BME280;38802;50.198;19.796;2023-04-24T00:43:09;95388.53;;;12.02;45.12
52935;BME280;38802;50.198;19.796;2023-04-24T00:45:37;95387.65;;;11.90;45.32
52935;BME280;38802;50.198;19.796;2023-04-24T00:48:06;95386.48;;;11.77;45.50
52935;BME280;38802;50.198;19.796;2023-04-24T00:50:36;95382.95;;;11.69;45.83
52935;BME280;38802;50.198;19.796;2023-04-24T00:53:04;95376.64;;;11.57;45.79
52935;BME280;38802;50.198;19.796;2023-04-24T00:55:32;95373.23;;;11.46;45.93
52935;BME280;38802;50.198;19.796;2023-04-24T00:58:01;95369.11;;;11.39;45.86
52935;BME280;38802;50.198;19.796;2023-04-24T01:00:29;95369.40;;;11.34;46.09
52935;BME280;38802;50.198;19.796;2023-04-24T01:03:01;95367.09;;;11.32;46.36
52935;BME280;38802;50.198;19.796;2023-04-24T01:05:33;95360.92;;;11.32;46.62
52935;BME280;38802;50.198;19.796;2023-04-24T01:08:02;95362.86;;;11.24;46.35
52935;BME280;38802;50.198;19.796;2023-04-24T01:10:32;95361.71;;;11.20;46.50
52935;BME280;38802;50.198;19.796;2023-04-24T01:13:01;95353.56;;;11.20;46.62
52935;BME280;38802;50.198;19.796;2023-04-24T01:15:31;95359.27;;;11.15;46.53
52935;BME280;38802;50.198;19.796;2023-04-24T01:18:00;95355.31;;;11.11;46.49
52935;BME280;38802;50.198;19.796;2023-04-24T01:20:33;95356.01;;;11.04;46.49
52935;BME280;38802;50.198;19.796;2023-04-24T01:23:04;95356.33;;;11.03;47.03
52935;BME280;38802;50.198;19.796;2023-04-24T01:25:32;95352.98;;;10.99;46.85
52935;BME280;38802;50.198;19.796;2023-04-24T01:28:01;95350.96;;;10.92;46.84
52935;BME280;38802;50.198;19.796;2023-04-24T01:30:29;95349.40;;;10.88;47.06
52935;BME280;38802;50.198;19.796;2023-04-24T01:32:58;95346.82;;;10.91;47.03
52935;BME280;38802;50.198;19.796;2023-04-24T01:35:26;95342.30;;;10.93;47.18
52935;BME280;38802;50.198;19.796;2023-04-24T01:37:55;95338.98;;;10.91;46.93
52935;BME280;38802;50.198;19.796;2023-04-24T01:40:24;95336.95;;;10.87;47.01
52935;BME280;38802;50.198;19.796;2023-04-24T01:42:53;95332.01;;;10.85;47.04
52935;BME280;38802;50.198;19.796;2023-04-24T01:45:22;95334.69;;;10.82;47.18
52935;BME280;38802;50.198;19.796;2023-04-24T01:47:50;95336.74;;;10.75;47.44
52935;BME280;38802;50.198;19.796;2023-04-24T01:50:18;95331.92;;;10.71;47.44
52935;BME280;38802;50.198;19.796;2023-04-24T01:52:46;95330.80;;;10.72;47.56
52935;BME280;38802;50.198;19.796;2023-04-24T01:55:15;95325.38;;;10.72;47.61
52935;BME280;38802;50.198;19.796;2023-04-24T01:57:45;95320.88;;;10.74;47.81
52935;BME280;38802;50.198;19.796;2023-04-24T02:00:13;95315.84;;;10.72;47.46
52935;BME280;38802;50.198;19.796;2023-04-24T02:02:42;95315.04;;;10.69;47.64
52935;BME280;38802;50.198;19.796;2023-04-24T02:05:14;95312.08;;;10.70;47.69
52935;BME280;38802;50.198;19.796;2023-04-24T02:07:42;95312.41;;;10.70;47.76
52935;BME280;38802;50.198;19.796;2023-04-24T02:10:11;95308.70;;;10.71;47.89
52935;BME280;38802;50.198;19.796;2023-04-24T02:12:42;95306.95;;;10.69;47.83
52935;BME280;38802;50.198;19.796;2023-04-24T02:15:11;95307.76;;;10.64;47.71
52935;BME280;38802;50.198;19.796;2023-04-24T02:17:39;95305.62;;;10.65;47.95
52935;BME280;38802;50.198;19.796;2023-04-24T02:20:09;95302.81;;;10.63;47.90
52935;BME280;38802;50.198;19.796;2023-04-24T02:22:38;95306.80;;;10.62;47.99
52935;BME280;38802;50.198;19.796;2023-04-24T02:25:09;95304.77;;;10.61;47.97
52935;BME280;38802;50.198;19.796;2023-04-24T02:27:37;95300.06;;;10.59;47.99
52935;BME280;38802;50.198;19.796;2023-04-24T02:30:06;95295.55;;;10.56;48.04
52935;BME280;38802;50.198;19.796;2023-04-24T02:32:37;95289.86;;;10.54;48.03
52935;BME280;38802;50.198;19.796;2023-04-24T02:35:07;95284.46;;;10.52;47.99
52935;BME280;38802;50.198;19.796;2023-04-24T02:37:35;95285.92;;;10.51;48.19
52935;BME280;38802;50.198;19.796;2023-04-24T02:40:08;95281.42;;;10.49;48.41
52935;BME280;38802;50.198;19.796;2023-04-24T02:42:39;95275.62;;;10.49;48.19
52935;BME280;38802;50.198;19.796;2023-04-24T02:45:09;95271.47;;;10.48;48.25
52935;BME280;38802;50.198;19.796;2023-04-24T02:47:38;95270.46;;;10.48;48.43
52935;BME280;38802;50.198;19.796;2023-04-24T02:50:06;95270.18;;;10.49;48.17
52935;BME280;38802;50.198;19.796;2023-04-24T02:52:34;95270.42;;;10.50;48.20
52935;BME280;38802;50.198;19.796;2023-04-24T02:55:03;95272.11;;;10.51;47.92
52935;BME280;38802;50.198;19.796;2023-04-24T02:57:31;95270.34;;;10.49;48.49
52935;BME280;38802;50.198;19.796;2023-04-24T03:10:58;95265.36;;;11.15;48.37
52935;BME280;38802;50.198;19.796;2023-04-24T03:13:26;95270.71;;;11.17;48.36
52935;BME280;38802;50.198;19.796;2023-04-24T03:15:54;95270.23;;;11.03;48.42
52935;BME280;38802;50.198;19.796;2023-04-24T03:18:23;95273.02;;;10.87;48.37
52935;BME280;38802;50.198;19.796;2023-04-24T03:20:53;95271.70;;;10.76;48.56
52935;BME280;38802;50.198;19.796;2023-04-24T03:23:21;95270.69;;;10.70;48.52
52935;BME280;38802;50.198;19.796;2023-04-24T03:25:49;95273.51;;;10.61;48.63
52935;BME280;38802;50.198;19.796;2023-04-24T03:28:17;95269.55;;;10.52;48.74
52935;BME280;38802;50.198;19.796;2023-04-24T03:30:51;95270.34;;;10.40;48.79
52935;BME280;38802;50.198;19.796;2023-04-24T03:33:20;95270.27;;;10.30;48.77
52935;BME280;38802;50.198;19.796;2023-04-24T03:35:56;95272.67;;;10.23;49.08
52935;BME280;38802;50.198;19.796;2023-04-24T03:38:24;95270.68;;;10.20;49.35
52935;BME280;38802;50.198;19.796;2023-04-24T03:41:10;95271.02;;;10.09;49.29
52935;BME280;38802;50.198;19.796;2023-04-24T03:43:46;95272.21;;;10.02;49.47
52935;BME280;38802;50.198;19.796;2023-04-24T03:46:14;95268.36;;;10.01;49.53
52935;BME280;38802;50.198;19.796;2023-04-24T03:48:47;95268.20;;;9.99;49.69
52935;BME280;38802;50.198;19.796;2023-04-24T03:51:21;95267.38;;;10.00;49.72
52935;BME280;38802;50.198;19.796;2023-04-24T03:53:51;95268.36;;;9.95;49.76
52935;BME280;38802;50.198;19.796;2023-04-24T03:56:20;95270.05;;;9.92;50.10
52935;BME280;38802;50.198;19.796;2023-04-24T03:58:50;95268.50;;;9.90;50.14
52935;BME280;38802;50.198;19.796;2023-04-24T04:01:18;95269.52;;;9.90;50.28
52935;BME280;38802;50.198;19.796;2023-04-24T04:04:08;95273.23;;;9.88;50.43
52935;BME280;38802;50.198;19.796;2023-04-24T04:06:37;95275.72;;;9.87;50.79
52935;BME280;38802;50.198;19.796;2023-04-24T04:09:05;95273.33;;;9.89;50.84
52935;BME280;38802;50.198;19.796;2023-04-24T04:11:36;95273.80;;;9.93;50.91
52935;BME280;38802;50.198;19.796;2023-04-24T04:14:04;95273.95;;;9.99;51.03
52935;BME280;38802;50.198;19.796;2023-04-24T04:16:33;95275.23;;;10.05;50.84
52935;BME280;38802;50.198;19.796;2023-04-24T04:19:03;95271.40;;;10.13;50.72
52935;BME280;38802;50.198;19.796;2023-04-24T04:21:31;95268.98;;;10.18;50.78
52935;BME280;38802;50.198;19.796;2023-04-24T04:24:23;95264.33;;;10.25;50.76
52935;BME280;38802;50.198;19.796;2023-04-24T04:26:53;95269.00;;;10.30;51.04
52935;BME280;38802;50.198;19.796;2023-04-24T04:29:34;95265.28;;;10.37;50.99
52935;BME280;38802;50.198;19.796;2023-04-24T04:32:04;95264.88;;;10.43;51.08
52935;BME280;38802;50.198;19.796;2023-04-24T04:34:33;95264.75;;;10.50;50.83
52935;BME280;38802;50.198;19.796;2023-04-24T04:37:01;95263.74;;;10.58;50.92
52935;BME280;38802;50.198;19.796;2023-04-24T04:39:50;95256.91;;;10.67;50.65
52935;BME280;38802;50.198;19.796;2023-04-24T04:42:21;95254.80;;;10.80;50.73
52935;BME280;38802;50.198;19.796;2023-04-24T04:44:50;95254.39;;;10.91;50.84
52935;BME280;38802;50.198;19.796;2023-04-24T04:47:21;95254.72;;;11.02;50.68
52935;BME280;38802;50.198;19.796;2023-04-24T04:49:51;95255.78;;;11.10;50.68
52935;BME280;38802;50.198;19.796;2023-04-24T04:52:22;95250.79;;;11.20;50.78
52935;BME280;38802;50.198;19.796;2023-04-24T04:54:57;95246.36;;;11.33;50.68
52935;BME280;38802;50.198;19.796;2023-04-24T04:57:31;95249.77;;;11.46;50.89
52935;BME280;38802;50.198;19.796;2023-04-24T04:59:59;95247.20;;;11.59;50.67
52935;BME280;38802;50.198;19.796;2023-04-24T05:02:38;95247.52;;;11.75;50.52
52935;BME280;38802;50.198;19.796;2023-04-24T05:05:07;95249.07;;;11.92;50.36
52935;BME280;38802;50.198;19.796;2023-04-24T05:07:36;95245.52;;;12.13;50.09
52935;BME280;38802;50.198;19.796;2023-04-24T05:10:06;95245.66;;;12.33;49.93
52935;BME280;38802;50.198;19.796;2023-04-24T05:12:34;95240.72;;;12.53;49.67
52935;BME280;38802;50.198;19.796;2023-04-24T05:15:03;95243.85;;;12.75;49.11
52935;BME280;38802;50.198;19.796;2023-04-24T05:17:31;95246.68;;;12.95;49.01
52935;BME280;38802;50.198;19.796;2023-04-24T05:19:59;95249.89;;;13.16;49.15
52935;BME280;38802;50.198;19.796;2023-04-24T05:22:29;95245.02;;;13.40;48.96
52935;BME280;38802;50.198;19.796;2023-04-24T05:24:58;95246.44;;;13.65;49.00
52935;BME280;38802;50.198;19.796;2023-04-24T05:27:36;95242.17;;;13.83;48.46
52935;BME280;38802;50.198;19.796;2023-04-24T05:30:08;95246.03;;;13.88;48.46
52935;BME280;38802;50.198;19.796;2023-04-24T05:32:37;95245.77;;;13.95;48.48
52935;BME280;38802;50.198;19.796;2023-04-24T05:35:05;95243.34;;;14.08;47.63
52935;BME280;38802;50.198;19.796;2023-04-24T05:37:34;95243.50;;;14.23;47.71
52935;BME280;38802;50.198;19.796;2023-04-24T05:40:03;95242.90;;;14.41;47.81
52935;BME280;38802;50.198;19.796;2023-04-24T05:42:33;95239.15;;;14.63;47.46
52935;BME280;38802;50.198;19.796;2023-04-24T05:45:01;95233.86;;;14.76;46.69
52935;BME280;38802;50.198;19.796;2023-04-24T05:47:29;95236.60;;;14.90;46.53
52935;BME280;38802;50.198;19.796;2023-04-24T05:49:58;95237.14;;;15.03;46.36
52935;BME280;38802;50.198;19.796;2023-04-24T05:52:25;95236.42;;;15.17;46.19
52935;BME280;38802;50.198;19.796;2023-04-24T05:54:53;95233.15;;;15.34;46.27
52935;BME280;38802;50.198;19.796;2023-04-24T05:57:23;95233.98;;;15.55;46.36
52935;BME280;38802;50.198;19.796;2023-04-24T05:59:54;95232.15;;;15.75;45.91
52935;BME280;38802;50.198;19.796;2023-04-24T06:02:23;95229.52;;;15.89;45.69
52935;BME280;38802;50.198;19.796;2023-04-24T06:04:52;95229.46;;;16.05;45.46
52935;BME280;38802;50.198;19.796;2023-04-24T06:07:20;95226.03;;;16.19;45.35
52935;BME280;38802;50.198;19.796;2023-04-24T06:09:49;95224.94;;;16.35;45.50
52935;BME280;38802;50.198;19.796;2023-04-24T06:12:17;95223.97;;;16.56;45.32
52935;BME280;38802;50.198;19.796;2023-04-24T06:14:55;95220.31;;;16.73;45.21
52935;BME280;38802;50.198;19.796;2023-04-24T06:17:43;95218.84;;;16.81;45.29
52935;BME280;38802;50.198;19.796;2023-04-24T06:20:12;95211.64;;;16.86;45.07
52935;BME280;38802;50.198;19.796;2023-04-24T06:22:40;95210.34;;;16.93;44.04
52935;BME280;38802;50.198;19.796;2023-04-24T06:25:10;95207.06;;;16.92;43.32
52935;BME280;38802;50.198;19.796;2023-04-24T06:27:38;95205.66;;;17.00;43.83
52935;BME280;38802;50.198;19.796;2023-04-24T06:30:08;95205.37;;;17.16;43.23
52935;BME280;38802;50.198;19.796;2023-04-24T06:32:36;95198.68;;;17.33;43.42
52935;BME280;38802;50.198;19.796;2023-04-24T06:35:05;95196.80;;;17.48;42.49
52935;BME280;38802;50.198;19.796;2023-04-24T06:37:35;95196.36;;;17.62;42.48
52935;BME280;38802;50.198;19.796;2023-04-24T06:40:04;95195.74;;;17.78;42.27
52935;BME280;38802;50.198;19.796;2023-04-24T06:42:36;95188.64;;;17.93;42.09
52935;BME280;38802;50.198;19.796;2023-04-24T06:45:04;95187.84;;;18.08;41.16
52935;BME280;38802;50.198;19.796;2023-04-24T06:47:33;95182.26;;;18.24;41.51
52935;BME280;38802;50.198;19.796;2023-04-24T06:50:01;95177.89;;;18.50;41.64
52935;BME280;38802;50.198;19.796;2023-04-24T06:52:29;95176.05;;;18.70;41.16
52935;BME280;38802;50.198;19.796;2023-04-24T06:55:01;95178.34;;;18.90;40.75
52935;BME280;38802;50.198;19.796;2023-04-24T06:57:31;95173.55;;;19.08;40.42
52935;BME280;38802;50.198;19.796;2023-04-24T06:59:59;95178.51;;;19.21;39.94
52935;BME280;38802;50.198;19.796;2023-04-24T07:02:27;95175.08;;;19.32;38.26
52935;BME280;38802;50.198;19.796;2023-04-24T07:04:56;95174.12;;;19.38;38.59
52935;BME280;38802;50.198;19.796;2023-04-24T07:07:24;95172.60;;;19.44;37.95
52935;BME280;38802;50.198;19.796;2023-04-24T07:09:53;95168.38;;;19.50;38.90
52935;BME280;38802;50.198;19.796;2023-04-24T07:12:21;95162.77;;;19.61;38.48
52935;BME280;38802;50.198;19.796;2023-04-24T07:14:50;95165.02;;;19.70;37.73
52935;BME280;38802;50.198;19.796;2023-04-24T07:17:18;95159.46;;;19.77;37.62
52935;BME280;38802;50.198;19.796;2023-04-24T07:19:46;95156.10;;;19.84;37.66
52935;BME280;38802;50.198;19.796;2023-04-24T07:22:14;95158.31;;;19.95;37.78
52935;BME280;38802;50.198;19.796;2023-04-24T07:24:44;95155.67;;;20.03;36.98
52935;BME280;38802;50.198;19.796;2023-04-24T07:27:12;95154.21;;;20.10;37.28
52935;BME280;38802;50.198;19.796;2023-04-24T07:29:43;95150.48;;;20.22;37.66
52935;BME280;38802;50.198;19.796;2023-04-24T07:32:12;95149.77;;;20.33;37.17
52935;BME280;38802;50.198;19.796;2023-04-24T07:34:39;95151.71;;;20.43;36.74
52935;BME280;38802;50.198;19.796;2023-04-24T07:37:11;95152.33;;;20.43;36.05
52935;BME280;38802;50.198;19.796;2023-04-24T07:39:39;95151.45;;;20.46;34.87
52935;BME280;38802;50.198;19.796;2023-04-24T07:42:09;95151.92;;;20.37;34.81
52935;BME280;38802;50.198;19.796;2023-04-24T07:44:37;95152.80;;;20.29;35.09
52935;BME280;38802;50.198;19.796;2023-04-24T07:47:05;95145.95;;;20.32;35.88
52935;BME280;38802;50.198;19.796;2023-04-24T07:49:34;95144.34;;;20.40;35.70
52935;BME280;38802;50.198;19.796;2023-04-24T07:52:02;95145.89;;;20.50;35.31
52935;BME280;38802;50.198;19.796;2023-04-24T07:54:30;95147.40;;;20.54;35.42
52935;BME280;38802;50.198;19.796;2023-04-24T07:56:58;95145.91;;;20.57;35.84
52935;BME280;38802;50.198;19.796;2023-04-24T07:59:26;95144.17;;;20.72;35.98
52935;BME280;38802;50.198;19.796;2023-04-24T08:01:54;95143.52;;;20.86;36.06
52935;BME280;38802;50.198;19.796;2023-04-24T08:04:22;95141.30;;;20.96;36.28
52935;BME280;38802;50.198;19.796;2023-04-24T08:06:50;95139.09;;;20.97;35.90
52935;BME280;38802;50.198;19.796;2023-04-24T08:09:18;95138.85;;;20.83;35.33
52935;BME280;38802;50.198;19.796;2023-04-24T08:11:46;95135.91;;;20.71;36.36
52935;BME280;38802;50.198;19.796;2023-04-24T08:14:14;95135.05;;;20.67;36.28
52935;BME280;38802;50.198;19.796;2023-04-24T08:16:42;95134.95;;;20.64;36.36
52935;BME280;38802;50.198;19.796;2023-04-24T08:19:11;95139.38;;;20.65;35.68
52935;BME280;38802;50.198;19.796;2023-04-24T08:21:39;95136.48;;;20.55;36.03
52935;BME280;38802;50.198;19.796;2023-04-24T08:24:07;95135.77;;;20.58;36.57
52935;BME280;38802;50.198;19.796;2023-04-24T08:26:35;95134.28;;;20.71;36.48
52935;BME280;38802;50.198;19.796;2023-04-24T08:29:04;95135.23;;;20.73;36.07
52935;BME280;38802;50.198;19.796;2023-04-24T08:31:32;95133.04;;;20.63;35.69
52935;BME280;38802;50.198;19.796;2023-04-24T08:34:00;95131.60;;;20.49;36.14
52935;BME280;38802;50.198;19.796;2023-04-24T08:36:28;95132.98;;;20.44;36.12
52935;BME280;38802;50.198;19.796;2023-04-24T08:39:13;95136.41;;;20.39;36.73
52935;BME280;38802;50.198;19.796;2023-04-24T08:41:43;95131.90;;;20.39;36.55
52935;BME280;38802;50.198;19.796;2023-04-24T08:44:12;95130.02;;;20.40;36.34
52935;BME280;38802;50.198;19.796;2023-04-24T08:46:43;95127.13;;;20.35;35.18
52935;BME280;38802;50.198;19.796;2023-04-24T08:49:15;95126.23;;;20.34;35.39
52935;BME280;38802;50.198;19.796;2023-04-24T08:51:46;95122.54;;;20.25;35.30
52935;BME280;38802;50.198;19.796;2023-04-24T08:54:15;95127.26;;;20.19;35.71
52935;BME280;38802;50.198;19.796;2023-04-24T08:56:44;95126.44;;;20.13;35.30
52935;BME280;38802;50.198;19.796;2023-04-24T08:59:14;95125.30;;;20.06;35.89
52935;BME280;38802;50.198;19.796;2023-04-24T09:01:44;95128.61;;;20.12;35.77
52935;BME280;38802;50.198;19.796;2023-04-24T09:04:14;95125.20;;;20.16;35.32
52935;BME280;38802;50.198;19.796;2023-04-24T09:06:46;95122.61;;;20.22;34.93
52935;BME280;38802;50.198;19.796;2023-04-24T09:09:16;95119.08;;;20.33;35.02
52935;BME280;38802;50.198;19.796;2023-04-24T09:11:44;95120.41;;;20.53;34.74
52935;BME280;38802;50.198;19.796;2023-04-24T09:14:17;95118.30;;;20.69;35.12
52935;BME280;38802;50.198;19.796;2023-04-24T09:16:46;95115.02;;;20.82;34.69
52935;BME280;38802;50.198;19.796;2023-04-24T09:19:16;95117.46;;;20.81;34.41
52935;BME280;38802;50.198;19.796;2023-04-24T09:21:47;95116.46;;;20.78;34.02
52935;BME280;38802;50.198;19.796;2023-04-24T09:24:17;95112.10;;;20.86;34.14
52935;BME280;38802;50.198;19.796;2023-04-24T09:26:46;95109.27;;;20.98;33.97
52935;BME280;38802;50.198;19.796;2023-04-24T09:29:17;95109.54;;;21.04;33.84
52935;BME280;38802;50.198;19.796;2023-04-24T09:32:21;95107.33;;;21.01;33.25
52935;BME280;38802;50.198;19.796;2023-04-24T09:35:08;95102.02;;;20.98;32.50
52935;BME280;38802;50.198;19.796;2023-04-24T09:37:37;95101.39;;;21.04;32.92
52935;BME280;38802;50.198;19.796;2023-04-24T09:40:17;95101.96;;;21.16;31.87
52935;BME280;38802;50.198;19.796;2023-04-24T09:42:55;95100.23;;;21.23;32.05
52935;BME280;38802;50.198;19.796;2023-04-24T09:45:35;95099.71;;;21.33;32.55
52935;BME280;38802;50.198;19.796;2023-04-24T09:48:04;95095.08;;;21.32;31.30
52935;BME280;38802;50.198;19.796;2023-04-24T09:50:34;95091.91;;;21.31;31.82
52935;BME280;38802;50.198;19.796;2023-04-24T09:53:03;95094.34;;;21.36;31.60
52935;BME280;38802;50.198;19.796;2023-04-24T09:55:39;95092.42;;;21.36;32.01
52935;BME280;38802;50.198;19.796;2023-04-24T09:58:07;95086.67;;;21.37;31.42
52935;BME280;38802;50.198;19.796;2023-04-24T10:00:35;95086.00;;;21.25;31.08
52935;BME280;38802;50.198;19.796;2023-04-24T10:03:05;95085.23;;;21.22;30.69
52935;BME280;38802;50.198;19.796;2023-04-24T10:05:35;95081.44;;;21.25;31.12
52935;BME280;38802;50.198;19.796;2023-04-24T10:08:15;95083.95;;;21.28;30.69
52935;BME280;38802;50.198;19.796;2023-04-24T10:10:45;95081.65;;;21.18;29.62
52935;BME280;38802;50.198;19.796;2023-04-24T10:13:14;95081.23;;;20.98;30.17
52935;BME280;38802;50.198;19.796;2023-04-24T10:15:47;95080.05;;;20.98;30.75
52935;BME280;38802;50.198;19.796;2023-04-24T10:18:17;95078.35;;;21.00;30.66
52935;BME280;38802;50.198;19.796;2023-04-24T10:20:51;95076.35;;;21.01;30.71
52935;BME280;38802;50.198;19.796;2023-04-24T10:23:24;95072.48;;;20.89;29.78
52935;BME280;38802;50.198;19.796;2023-04-24T10:25:53;95072.54;;;20.71;30.27
52935;BME280;38802;50.198;19.796;2023-04-24T10:28:22;95072.95;;;20.75;31.15
52935;BME280;38802;50.198;19.796;2023-04-24T10:30:54;95074.70;;;20.90;31.54
52935;BME280;38802;50.198;19.796;2023-04-24T10:33:23;95070.27;;;20.94;31.30
52935;BME280;38802;50.198;19.796;2023-04-24T10:35:52;95071.04;;;20.95;31.53
52935;BME280;38802;50.198;19.796;2023-04-24T10:38:30;95069.53;;;20.94;31.64
52935;BME280;38802;50.198;19.796;2023-04-24T10:41:11;95069.20;;;20.87;31.12
52935;BME280;38802;50.198;19.796;2023-04-24T10:43:47;95071.70;;;20.79;31.06
52935;BME280;38802;50.198;19.796;2023-04-24T10:46:21;95069.95;;;20.73;31.24
52935;BME280;38802;50.198;19.796;2023-04-24T10:48:55;95063.09;;;20.72;31.44
52935;BME280;38802;50.198;19.796;2023-04-24T10:51:42;95065.27;;;20.74;31.59
52935;BME280;38802;50.198;19.796;2023-04-24T10:57:25;95059.07;;;20.65;32.02
52935;BME280;38802;50.198;19.796;2023-04-24T10:59:41;95061.55;;;20.65;32.11
52935;BME280;38802;50.198;19.796;2023-04-24T11:02:09;95059.95;;;20.62;32.22
52935;BME280;38802;50.198;19.796;2023-04-24T11:04:37;95059.66;;;20.63;32.40
52935;BME280;38802;50.198;19.796;2023-04-24T11:07:06;95059.40;;;20.64;32.30
52935;BME280;38802;50.198;19.796;2023-04-24T11:09:35;95060.13;;;20.61;32.57
52935;BME280;38802;50.198;19.796;2023-04-24T11:12:09;95058.19;;;20.54;32.35
52935;BME280;38802;50.198;19.796;2023-04-24T11:17:44;95058.95;;;20.41;32.08
52935;BME280;38802;50.198;19.796;2023-04-24T11:20:17;95055.65;;;20.42;32.05
52935;BME280;38802;50.198;19.796;2023-04-24T11:23:03;95052.96;;;20.40;31.99
52935;BME280;38802;50.198;19.796;2023-04-24T11:25:31;95049.45;;;20.32;30.49
52935;BME280;38802;50.198;19.796;2023-04-24T11:28:05;95047.94;;;20.20;30.66
52935;BME280;38802;50.198;19.796;2023-04-24T11:30:34;95046.14;;;20.20;30.99
52935;BME280;38802;50.198;19.796;2023-04-24T11:33:04;95046.26;;;20.27;30.90
52935;BME280;38802;50.198;19.796;2023-04-24T11:35:40;95045.15;;;20.37;31.22
52935;BME280;38802;50.198;19.796;2023-04-24T11:38:09;95041.59;;;20.48;31.10
52935;BME280;38802;50.198;19.796;2023-04-24T11:40:41;95044.65;;;20.52;31.04
52935;BME280;38802;50.198;19.796;2023-04-24T11:43:10;95041.45;;;20.55;31.33
52935;BME280;38802;50.198;19.796;2023-04-24T11:45:47;95039.33;;;20.60;31.12
52935;BME280;38802;50.198;19.796;2023-04-24T11:48:20;95039.51;;;20.62;31.25
52935;BME280;38802;50.198;19.796;2023-04-24T12:17:25;95011.27;;;21.21;30.89
52935;BME280;38802;50.198;19.796;2023-04-24T12:22:50;95001.89;;;21.02;31.11
52935;BME280;38802;50.198;19.796;2023-04-24T12:25:18;95001.31;;;20.92;31.56
52935;BME280;38802;50.198;19.796;2023-04-24T12:27:47;94997.25;;;20.78;31.40
52935;BME280;38802;50.198;19.796;2023-04-24T12:30:18;94998.74;;;20.59;31.75
52935;BME280;38802;50.198;19.796;2023-04-24T12:32:47;94994.64;;;20.53;31.64
52935;BME280;38802;50.198;19.796;2023-04-24T12:35:23;94989.38;;;20.47;31.89
52935;BME280;38802;50.198;19.796;2023-04-24T12:37:49;94985.98;;;20.41;31.87
52935;BME280;38802;50.198;19.796;2023-04-24T12:40:18;94986.70;;;20.35;31.74
52935;BME280;38802;50.198;19.796;2023-04-24T12:42:50;94988.60;;;20.26;32.06
52935;BME280;38802;50.198;19.796;2023-04-24T12:45:18;94987.50;;;20.16;32.88
52935;BME280;38802;50.198;19.796;2023-04-24T12:47:46;94986.48;;;19.93;34.48
52935;BME280;38802;50.198;19.796;2023-04-24T12:50:15;94987.84;;;19.53;35.61
52935;BME280;38802;50.198;19.796;2023-04-24T12:52:43;94994.02;;;19.24;36.77
52935;BME280;38802;50.198;19.796;2023-04-24T12:55:09;94994.33;;;19.02;37.41
52935;BME280;38802;50.198;19.796;2023-04-24T12:57:38;94990.13;;;18.96;38.77
52935;BME280;38802;50.198;19.796;2023-04-24T13:00:06;94990.95;;;18.93;39.62
52935;BME280;38802;50.198;19.796;2023-04-24T13:02:48;94989.45;;;18.90;39.72
52935;BME280;38802;50.198;19.796;2023-04-24T13:05:27;94990.52;;;18.75;40.21
52935;BME280;38802;50.198;19.796;2023-04-24T13:07:54;94996.71;;;18.57;40.05
52935;BME280;38802;50.198;19.796;2023-04-24T13:10:20;94992.76;;;18.43;40.71
52935;BME280;38802;50.198;19.796;2023-04-24T13:12:47;94995.19;;;18.26;40.91
52935;BME280;38802;50.198;19.796;2023-04-24T13:15:14;94997.58;;;18.10;41.45
52935;BME280;38802;50.198;19.796;2023-04-24T13:17:40;94995.63;;;17.97;41.75
52935;BME280;38802;50.198;19.796;2023-04-24T13:20:07;95000.12;;;17.87;41.85
52935;BME280;38802;50.198;19.796;2023-04-24T13:22:36;95004.45;;;17.73;42.35
52935;BME280;38802;50.198;19.796;2023-04-24T13:25:05;95002.56;;;17.53;42.51
52935;BME280;38802;50.198;19.796;2023-04-24T13:27:38;95005.86;;;17.35;43.08
52935;BME280;38802;50.198;19.796;2023-04-24T13:30:08;95002.85;;;17.22;43.73
52935;BME280;38802;50.198;19.796;2023-04-24T13:32:37;95007.11;;;17.05;44.13
52935;BME280;38802;50.198;19.796;2023-04-24T13:35:04;95012.00;;;16.88;44.54
52935;BME280;38802;50.198;19.796;2023-04-24T13:37:30;95010.52;;;16.78;44.36
52935;BME280;38802;50.198;19.796;2023-04-24T13:39:57;95009.03;;;16.80;44.89
52935;BME280;38802;50.198;19.796;2023-04-24T13:42:55;95001.62;;;16.77;45.26
52935;BME280;38802;50.198;19.796;2023-04-24T13:45:22;94999.76;;;16.77;45.22
52935;BME280;38802;50.198;19.796;2023-04-24T13:47:52;94992.92;;;16.78;45.87
52935;BME280;38802;50.198;19.796;2023-04-24T13:50:20;94996.35;;;16.76;45.97
52935;BME280;38802;50.198;19.796;2023-04-24T13:52:47;94996.70;;;16.74;46.03